This is the latest recevied weather packets stored in our database for station/object SP4MAZ-13. If no packets are shown the sender has not sent any weather packets the latest 10 day(s).
| Time | Temp. | Humidity | Pressure | Rain* | Wind** | Luminosity | Snow |
|---|---|---|---|---|---|---|---|
| 1777745862 | 12.78° C | 63% | 2147.4 hPa | - | - | - | - |
| 1777744347 | 13.89° C | 75% | 2147.4 hPa | - | - | - | - |
| 1777742225 | 17.78° C | 39% | 2147.4 hPa | - | - | - | - |
| 1777741620 | 18.33° C | 50% | 2147.4 hPa | - | - | - | - |
| 1777741017 | 18.89° C | 41% | 2147.4 hPa | - | - | - | - |
| 1777740411 | 18.33° C | 45% | 2147.4 hPa | - | - | - | - |
| 1777740110 | 18.89° C | 44% | 2147.4 hPa | - | - | - | - |
| 1777739806 | 18.33° C | 49% | 2147.4 hPa | - | - | - | - |
| 1777739202 | 18.89° C | 45% | 2147.4 hPa | - | - | - | - |
| 1777738597 | 18.89° C | 41% | 2147.4 hPa | - | - | - | - |
| 1777738296 | 20° C | 36% | 2147.4 hPa | - | - | - | - |
| 1777737992 | 20.56° C | 29% | 2147.4 hPa | - | - | - | - |
| 1777737082 | 20.56° C | 36% | 2147.4 hPa | - | - | - | - |
| 1777736778 | 21.67° C | 28% | 2147.4 hPa | - | - | - | - |
| 1777736475 | 21.67° C | 27% | 2147.4 hPa | - | - | - | - |
| 1777736172 | 22.22° C | 23% | 2147.4 hPa | - | - | - | - |
| 1777735871 | 21.67° C | 25% | 2147.4 hPa | - | - | - | - |
| 1777735567 | 20.56° C | 33% | 2147.4 hPa | - | - | - | - |
| 1777735263 | 21.11° C | 34% | 2147.4 hPa | - | - | - | - |
| 1777734960 | 23.33° C | 21% | 2147.4 hPa | - | - | - | - |
| 1777734657 | 22.22° C | 25% | 2147.4 hPa | - | - | - | - |
| 1777734353 | 21.67° C | 29% | 2147.4 hPa | - | - | - | - |
| 1777734049 | 22.22° C | 31% | 2147.4 hPa | - | - | - | - |
| 1777733746 | 23.33° C | 21% | 2147.4 hPa | - | - | - | - |
| 1777733445 | 23.33° C | 23% | 2147.4 hPa | - | - | - | - |
* Rain since midnight (hover to see other rain measurements)
** Current wind speed in m/s (hover to see current wind gust speed)